sensor_id;sensor_type;location;lat;lon;timestamp;P1;durP1;ratioP1;P2;durP2;ratioP2
77802;SDS011;66993;48.256;16.422;2023-04-01T00:01:43;3.9;;;1.8;;
77802;SDS011;66993;48.256;16.422;2023-04-01T00:06:44;4.2;;;1.8;;
77802;SDS011;66993;48.256;16.422;2023-04-01T00:11:45;2.8;;;1.6;;
77802;SDS011;66993;48.256;16.422;2023-04-01T00:16:47;3.6;;;1.5;;
77802;SDS011;66993;48.256;16.422;2023-04-01T00:21:48;2.9;;;1.6;;
77802;SDS011;66993;48.256;16.422;2023-04-01T00:26:50;2.4;;;1.7;;
77802;SDS011;66993;48.256;16.422;2023-04-01T00:31:50;3.3;;;1.7;;
77802;SDS011;66993;48.256;16.422;2023-04-01T00:36:52;2.7;;;1.4;;
77802;SDS011;66993;48.256;16.422;2023-04-01T00:41:53;2.4;;;1.6;;
77802;SDS011;66993;48.256;16.422;2023-04-01T00:46:54;2.8;;;1.5;;
77802;SDS011;66993;48.256;16.422;2023-04-01T00:51:56;5.3;;;1.6;;
77802;SDS011;66993;48.256;16.422;2023-04-01T00:56:58;3.6;;;1.6;;
77802;SDS011;66993;48.256;16.422;2023-04-01T01:01:58;2.5;;;1.2;;
77802;SDS011;66993;48.256;16.422;2023-04-01T01:07:03;5.7;;;1.7;;
77802;SDS011;66993;48.256;16.422;2023-04-01T01:12:03;4.3;;;1.9;;
77802;SDS011;66993;48.256;16.422;2023-04-01T01:17:05;5.5;;;1.9;;
77802;SDS011;66993;48.256;16.422;2023-04-01T01:22:06;2.3;;;1.5;;
77802;SDS011;66993;48.256;16.422;2023-04-01T01:27:05;3.4;;;1.3;;
77802;SDS011;66993;48.256;16.422;2023-04-01T01:32:07;3.6;;;1.5;;
77802;SDS011;66993;48.256;16.422;2023-04-01T01:37:08;3.7;;;1.5;;
77802;SDS011;66993;48.256;16.422;2023-04-01T01:42:09;3.5;;;1.6;;
77802;SDS011;66993;48.256;16.422;2023-04-01T01:47:09;3.7;;;1.9;;
77802;SDS011;66993;48.256;16.422;2023-04-01T01:52:11;2.5;;;1.2;;
77802;SDS011;66993;48.256;16.422;2023-04-01T01:57:12;3.6;;;1.5;;
77802;SDS011;66993;48.256;16.422;2023-04-01T02:02:13;6.6;;;1.8;;
77802;SDS011;66993;48.256;16.422;2023-04-01T02:07:16;2.5;;;1.6;;
77802;SDS011;66993;48.256;16.422;2023-04-01T02:12:16;3.9;;;1.8;;
77802;SDS011;66993;48.256;16.422;2023-04-01T02:17:18;4.2;;;1.4;;
77802;SDS011;66993;48.256;16.422;2023-04-01T02:22:20;3.4;;;1.2;;
77802;SDS011;66993;48.256;16.422;2023-04-01T02:27:20;2.9;;;1.8;;
77802;SDS011;66993;48.256;16.422;2023-04-01T02:32:21;2.2;;;1.7;;
77802;SDS011;66993;48.256;16.422;2023-04-01T02:37:22;3.0;;;1.6;;
77802;SDS011;66993;48.256;16.422;2023-04-01T02:42:23;2.3;;;1.4;;
77802;SDS011;66993;48.256;16.422;2023-04-01T02:47:25;4.3;;;1.5;;
77802;SDS011;66993;48.256;16.422;2023-04-01T02:52:26;3.3;;;1.5;;
77802;SDS011;66993;48.256;16.422;2023-04-01T02:57:27;2.7;;;1.6;;
77802;SDS011;66993;48.256;16.422;2023-04-01T03:02:28;3.2;;;1.7;;
77802;SDS011;66993;48.256;16.422;2023-04-01T03:07:30;2.6;;;1.2;;
77802;SDS011;66993;48.256;16.422;2023-04-01T03:12:31;3.9;;;1.6;;
77802;SDS011;66993;48.256;16.422;2023-04-01T03:17:32;3.4;;;1.8;;
77802;SDS011;66993;48.256;16.422;2023-04-01T03:22:34;5.8;;;1.6;;
77802;SDS011;66993;48.256;16.422;2023-04-01T03:27:35;3.3;;;1.4;;
77802;SDS011;66993;48.256;16.422;2023-04-01T03:32:36;3.4;;;1.4;;
77802;SDS011;66993;48.256;16.422;2023-04-01T03:37:38;6.7;;;1.7;;
77802;SDS011;66993;48.256;16.422;2023-04-01T03:42:38;4.6;;;1.6;;
77802;SDS011;66993;48.256;16.422;2023-04-01T03:47:40;4.8;;;1.9;;
77802;SDS011;66993;48.256;16.422;2023-04-01T03:52:41;4.5;;;1.6;;
77802;SDS011;66993;48.256;16.422;2023-04-01T03:57:42;5.7;;;1.5;;
77802;SDS011;66993;48.256;16.422;2023-04-01T04:02:44;6.3;;;1.9;;
77802;SDS011;66993;48.256;16.422;2023-04-01T04:07:45;4.6;;;2.0;;
77802;SDS011;66993;48.256;16.422;2023-04-01T04:12:48;4.7;;;1.6;;
77802;SDS011;66993;48.256;16.422;2023-04-01T04:17:47;2.8;;;1.7;;
77802;SDS011;66993;48.256;16.422;2023-04-01T04:22:49;3.6;;;1.4;;
77802;SDS011;66993;48.256;16.422;2023-04-01T04:27:50;3.4;;;1.6;;
77802;SDS011;66993;48.256;16.422;2023-04-01T04:32:52;4.6;;;1.9;;
77802;SDS011;66993;48.256;16.422;2023-04-01T04:37:52;3.9;;;1.8;;
77802;SDS011;66993;48.256;16.422;2023-04-01T04:42:54;2.8;;;1.6;;
77802;SDS011;66993;48.256;16.422;2023-04-01T04:47:55;5.5;;;1.5;;
77802;SDS011;66993;48.256;16.422;2023-04-01T04:52:56;3.9;;;1.7;;
77802;SDS011;66993;48.256;16.422;2023-04-01T04:57:57;4.8;;;2.3;;
77802;SDS011;66993;48.256;16.422;2023-04-01T05:02:59;3.5;;;1.9;;
77802;SDS011;66993;48.256;16.422;2023-04-01T05:08:00;2.8;;;1.4;;
77802;SDS011;66993;48.256;16.422;2023-04-01T05:13:01;4.5;;;1.8;;
77802;SDS011;66993;48.256;16.422;2023-04-01T05:18:03;2.9;;;1.4;;
77802;SDS011;66993;48.256;16.422;2023-04-01T05:23:04;3.6;;;1.8;;
77802;SDS011;66993;48.256;16.422;2023-04-01T05:28:05;2.7;;;1.4;;
77802;SDS011;66993;48.256;16.422;2023-04-01T05:33:07;1.7;;;1.2;;
77802;SDS011;66993;48.256;16.422;2023-04-01T05:38:07;3.2;;;1.4;;
77802;SDS011;66993;48.256;16.422;2023-04-01T05:43:09;2.1;;;1.4;;
77802;SDS011;66993;48.256;16.422;2023-04-01T05:48:10;2.5;;;1.5;;
77802;SDS011;66993;48.256;16.422;2023-04-01T05:53:11;2.2;;;1.6;;
77802;SDS011;66993;48.256;16.422;2023-04-01T05:58:16;2.7;;;1.6;;
77802;SDS011;66993;48.256;16.422;2023-04-01T06:03:14;3.1;;;1.2;;
77802;SDS011;66993;48.256;16.422;2023-04-01T06:08:16;2.1;;;1.1;;
77802;SDS011;66993;48.256;16.422;2023-04-01T06:13:18;3.7;;;1.8;;
77802;SDS011;66993;48.256;16.422;2023-04-01T06:18:24;2.3;;;1.8;;
77802;SDS011;66993;48.256;16.422;2023-04-01T06:23:23;2.7;;;1.5;;
77802;SDS011;66993;48.256;16.422;2023-04-01T06:33:27;2.9;;;1.4;;
77802;SDS011;66993;48.256;16.422;2023-04-01T06:38:27;2.5;;;1.3;;
77802;SDS011;66993;48.256;16.422;2023-04-01T06:43:25;2.7;;;1.4;;
77802;SDS011;66993;48.256;16.422;2023-04-01T06:48:32;3.5;;;1.5;;
77802;SDS011;66993;48.256;16.422;2023-04-01T06:53:29;3.3;;;1.3;;
77802;SDS011;66993;48.256;16.422;2023-04-01T06:58:30;3.5;;;1.4;;
77802;SDS011;66993;48.256;16.422;2023-04-01T07:03:30;2.9;;;1.5;;
77802;SDS011;66993;48.256;16.422;2023-04-01T07:08:31;3.4;;;1.8;;
77802;SDS011;66993;48.256;16.422;2023-04-01T07:13:33;3.7;;;1.6;;
77802;SDS011;66993;48.256;16.422;2023-04-01T07:18:36;3.0;;;1.4;;
77802;SDS011;66993;48.256;16.422;2023-04-01T07:23:36;3.4;;;1.3;;
77802;SDS011;66993;48.256;16.422;2023-04-01T07:28:36;3.3;;;1.7;;
77802;SDS011;66993;48.256;16.422;2023-04-01T07:33:38;3.3;;;1.6;;
77802;SDS011;66993;48.256;16.422;2023-04-01T07:38:40;3.0;;;1.7;;
77802;SDS011;66993;48.256;16.422;2023-04-01T07:43:48;3.4;;;1.2;;
77802;SDS011;66993;48.256;16.422;2023-04-01T07:48:42;3.0;;;1.3;;
77802;SDS011;66993;48.256;16.422;2023-04-01T07:53:43;2.7;;;1.4;;
77802;SDS011;66993;48.256;16.422;2023-04-01T07:58:48;3.1;;;1.7;;
77802;SDS011;66993;48.256;16.422;2023-04-01T08:03:51;3.3;;;1.5;;
77802;SDS011;66993;48.256;16.422;2023-04-01T08:08:50;2.0;;;1.1;;
77802;SDS011;66993;48.256;16.422;2023-04-01T08:13:49;2.7;;;1.5;;
77802;SDS011;66993;48.256;16.422;2023-04-01T08:18:51;2.5;;;1.6;;
77802;SDS011;66993;48.256;16.422;2023-04-01T08:23:51;3.7;;;1.7;;
77802;SDS011;66993;48.256;16.422;2023-04-01T08:28:52;2.7;;;1.6;;
77802;SDS011;66993;48.256;16.422;2023-04-01T08:33:53;3.9;;;1.3;;
77802;SDS011;66993;48.256;16.422;2023-04-01T08:38:54;3.3;;;1.4;;
77802;SDS011;66993;48.256;16.422;2023-04-01T08:43:59;2.7;;;1.6;;
77802;SDS011;66993;48.256;16.422;2023-04-01T08:49:02;4.7;;;1.8;;
77802;SDS011;66993;48.256;16.422;2023-04-01T08:54:02;2.3;;;1.7;;
77802;SDS011;66993;48.256;16.422;2023-04-01T08:59:02;3.0;;;1.6;;
77802;SDS011;66993;48.256;16.422;2023-04-01T09:04:05;3.5;;;1.7;;
77802;SDS011;66993;48.256;16.422;2023-04-01T09:09:05;3.0;;;1.8;;
77802;SDS011;66993;48.256;16.422;2023-04-01T09:14:07;3.4;;;1.9;;
77802;SDS011;66993;48.256;16.422;2023-04-01T09:19:15;2.9;;;1.8;;
77802;SDS011;66993;48.256;16.422;2023-04-01T09:29:10;3.0;;;1.7;;
77802;SDS011;66993;48.256;16.422;2023-04-01T09:39:13;2.2;;;1.5;;
77802;SDS011;66993;48.256;16.422;2023-04-01T09:44:11;1.8;;;1.3;;
77802;SDS011;66993;48.256;16.422;2023-04-01T09:49:20;3.2;;;1.2;;
77802;SDS011;66993;48.256;16.422;2023-04-01T09:54:16;2.4;;;1.4;;
77802;SDS011;66993;48.256;16.422;2023-04-01T09:59:24;2.8;;;1.4;;
77802;SDS011;66993;48.256;16.422;2023-04-01T10:04:18;2.0;;;1.5;;
77802;SDS011;66993;48.256;16.422;2023-04-01T10:14:23;1.4;;;1.2;;
77802;SDS011;66993;48.256;16.422;2023-04-01T10:19:25;2.5;;;1.0;;
77802;SDS011;66993;48.256;16.422;2023-04-01T10:29:28;1.6;;;1.0;;
77802;SDS011;66993;48.256;16.422;2023-04-01T10:34:32;2.5;;;1.2;;
77802;SDS011;66993;48.256;16.422;2023-04-01T10:39:33;1.6;;;1.1;;
77802;SDS011;66993;48.256;16.422;2023-04-01T10:44:29;1.7;;;0.9;;
77802;SDS011;66993;48.256;16.422;2023-04-01T10:49:38;2.0;;;1.1;;
77802;SDS011;66993;48.256;16.422;2023-04-01T10:59:36;1.9;;;1.5;;
77802;SDS011;66993;48.256;16.422;2023-04-01T11:04:37;2.6;;;1.4;;
77802;SDS011;66993;48.256;16.422;2023-04-01T11:09:37;1.9;;;1.1;;
77802;SDS011;66993;48.256;16.422;2023-04-01T11:14:39;1.2;;;1.1;;
77802;SDS011;66993;48.256;16.422;2023-04-01T11:24:40;1.8;;;1.2;;
77802;SDS011;66993;48.256;16.422;2023-04-01T11:29:43;1.3;;;1.1;;
77802;SDS011;66993;48.256;16.422;2023-04-01T11:34:43;1.7;;;1.1;;
77802;SDS011;66993;48.256;16.422;2023-04-01T11:39:41;1.6;;;1.0;;
77802;SDS011;66993;48.256;16.422;2023-04-01T11:44:43;2.7;;;1.3;;
77802;SDS011;66993;48.256;16.422;2023-04-01T11:49:44;1.3;;;1.2;;
77802;SDS011;66993;48.256;16.422;2023-04-01T11:54:49;1.8;;;1.2;;
77802;SDS011;66993;48.256;16.422;2023-04-01T11:59:47;1.8;;;1.2;;
77802;SDS011;66993;48.256;16.422;2023-04-01T12:04:49;1.6;;;0.9;;
77802;SDS011;66993;48.256;16.422;2023-04-01T12:09:49;2.3;;;1.3;;
77802;SDS011;66993;48.256;16.422;2023-04-01T12:14:50;1.5;;;1.1;;
77802;SDS011;66993;48.256;16.422;2023-04-01T12:19:51;2.4;;;1.1;;
77802;SDS011;66993;48.256;16.422;2023-04-01T12:24:52;1.8;;;1.1;;
77802;SDS011;66993;48.256;16.422;2023-04-01T12:29:57;2.4;;;1.0;;
77802;SDS011;66993;48.256;16.422;2023-04-01T12:34:56;1.5;;;1.0;;
77802;SDS011;66993;48.256;16.422;2023-04-01T12:39:59;1.1;;;0.8;;
77802;SDS011;66993;48.256;16.422;2023-04-01T12:44:59;1.4;;;1.0;;
77802;SDS011;66993;48.256;16.422;2023-04-01T12:55:01;2.6;;;1.3;;
77802;SDS011;66993;48.256;16.422;2023-04-01T13:00:03;3.3;;;1.6;;
77802;SDS011;66993;48.256;16.422;2023-04-01T13:10:06;2.7;;;1.1;;
77802;SDS011;66993;48.256;16.422;2023-04-01T13:15:07;1.4;;;0.9;;
77802;SDS011;66993;48.256;16.422;2023-04-01T13:20:06;1.7;;;1.3;;
77802;SDS011;66993;48.256;16.422;2023-04-01T13:25:06;2.8;;;1.3;;
77802;SDS011;66993;48.256;16.422;2023-04-01T13:30:16;2.3;;;1.2;;
77802;SDS011;66993;48.256;16.422;2023-04-01T13:35:13;1.6;;;1.2;;
77802;SDS011;66993;48.256;16.422;2023-04-01T13:40:16;2.2;;;1.2;;
77802;SDS011;66993;48.256;16.422;2023-04-01T13:45:12;2.3;;;1.2;;
77802;SDS011;66993;48.256;16.422;2023-04-01T14:00:23;2.4;;;1.2;;
77802;SDS011;66993;48.256;16.422;2023-04-01T14:10:18;1.6;;;0.9;;
77802;SDS011;66993;48.256;16.422;2023-04-01T14:15:22;1.5;;;0.9;;
77802;SDS011;66993;48.256;16.422;2023-04-01T14:20:22;2.2;;;1.0;;
77802;SDS011;66993;48.256;16.422;2023-04-01T14:30:27;2.5;;;1.2;;
77802;SDS011;66993;48.256;16.422;2023-04-01T14:35:28;2.2;;;1.2;;
77802;SDS011;66993;48.256;16.422;2023-04-01T14:40:26;2.1;;;1.2;;
77802;SDS011;66993;48.256;16.422;2023-04-01T14:45:33;1.7;;;1.0;;
77802;SDS011;66993;48.256;16.422;2023-04-01T14:50:27;2.2;;;0.8;;
77802;SDS011;66993;48.256;16.422;2023-04-01T14:55:31;2.1;;;0.7;;
77802;SDS011;66993;48.256;16.422;2023-04-01T15:00:29;1.4;;;0.8;;
77802;SDS011;66993;48.256;16.422;2023-04-01T15:05:32;1.4;;;0.9;;
77802;SDS011;66993;48.256;16.422;2023-04-01T15:10:40;1.9;;;1.0;;
77802;SDS011;66993;48.256;16.422;2023-04-01T15:15:35;1.5;;;0.9;;
77802;SDS011;66993;48.256;16.422;2023-04-01T15:20:40;1.3;;;0.8;;
77802;SDS011;66993;48.256;16.422;2023-04-01T15:25:39;1.6;;;1.1;;
77802;SDS011;66993;48.256;16.422;2023-04-01T15:30:37;3.0;;;1.1;;
77802;SDS011;66993;48.256;16.422;2023-04-01T15:35:39;1.8;;;0.9;;
77802;SDS011;66993;48.256;16.422;2023-04-01T15:40:43;1.9;;;1.2;;
77802;SDS011;66993;48.256;16.422;2023-04-01T15:45:43;3.4;;;1.2;;
77802;SDS011;66993;48.256;16.422;2023-04-01T15:50:48;2.0;;;1.0;;
77802;SDS011;66993;48.256;16.422;2023-04-01T15:55:44;3.0;;;1.0;;
77802;SDS011;66993;48.256;16.422;2023-04-01T16:00:45;1.7;;;1.0;;
77802;SDS011;66993;48.256;16.422;2023-04-01T16:05:51;1.2;;;0.9;;
77802;SDS011;66993;48.256;16.422;2023-04-01T16:10:50;1.7;;;1.0;;
77802;SDS011;66993;48.256;16.422;2023-04-01T16:15:50;7.4;;;1.6;;
77802;SDS011;66993;48.256;16.422;2023-04-01T16:20:51;3.3;;;1.5;;
77802;SDS011;66993;48.256;16.422;2023-04-01T16:25:52;2.4;;;1.4;;
77802;SDS011;66993;48.256;16.422;2023-04-01T16:30:56;2.4;;;1.2;;
77802;SDS011;66993;48.256;16.422;2023-04-01T16:35:54;1.7;;;0.9;;
77802;SDS011;66993;48.256;16.422;2023-04-01T16:41:00;1.9;;;1.2;;
77802;SDS011;66993;48.256;16.422;2023-04-01T16:46:02;1.9;;;1.3;;
77802;SDS011;66993;48.256;16.422;2023-04-01T16:50:59;2.6;;;1.5;;
77802;SDS011;66993;48.256;16.422;2023-04-01T16:56:02;2.6;;;1.2;;
77802;SDS011;66993;48.256;16.422;2023-04-01T17:01:00;1.0;;;0.9;;
77802;SDS011;66993;48.256;16.422;2023-04-01T17:06:05;1.2;;;1.0;;
77802;SDS011;66993;48.256;16.422;2023-04-01T17:11:03;1.8;;;1.5;;
77802;SDS011;66993;48.256;16.422;2023-04-01T17:16:07;1.7;;;1.2;;
77802;SDS011;66993;48.256;16.422;2023-04-01T17:21:05;1.2;;;1.1;;
77802;SDS011;66993;48.256;16.422;2023-04-01T17:26:10;1.5;;;1.0;;
77802;SDS011;66993;48.256;16.422;2023-04-01T17:31:09;1.2;;;0.9;;
77802;SDS011;66993;48.256;16.422;2023-04-01T17:36:09;2.3;;;1.3;;
77802;SDS011;66993;48.256;16.422;2023-04-01T17:41:11;1.3;;;1.1;;
77802;SDS011;66993;48.256;16.422;2023-04-01T17:46:19;1.8;;;1.3;;
77802;SDS011;66993;48.256;16.422;2023-04-01T17:51:15;2.4;;;1.2;;
77802;SDS011;66993;48.256;16.422;2023-04-01T17:56:17;1.8;;;1.2;;
77802;SDS011;66993;48.256;16.422;2023-04-01T18:01:17;1.8;;;1.5;;
77802;SDS011;66993;48.256;16.422;2023-04-01T18:06:17;2.1;;;1.3;;
77802;SDS011;66993;48.256;16.422;2023-04-01T18:11:18;2.2;;;1.4;;
77802;SDS011;66993;48.256;16.422;2023-04-01T18:16:22;2.1;;;1.2;;
77802;SDS011;66993;48.256;16.422;2023-04-01T18:21:22;2.6;;;1.3;;
77802;SDS011;66993;48.256;16.422;2023-04-01T18:26:21;1.9;;;1.4;;
77802;SDS011;66993;48.256;16.422;2023-04-01T18:31:23;1.8;;;1.4;;
77802;SDS011;66993;48.256;16.422;2023-04-01T18:36:24;1.8;;;1.4;;
77802;SDS011;66993;48.256;16.422;2023-04-01T18:41:28;1.9;;;1.4;;
77802;SDS011;66993;48.256;16.422;2023-04-01T18:46:27;2.8;;;1.5;;
77802;SDS011;66993;48.256;16.422;2023-04-01T18:51:33;2.1;;;1.7;;
77802;SDS011;66993;48.256;16.422;2023-04-01T18:56:29;1.8;;;1.6;;
77802;SDS011;66993;48.256;16.422;2023-04-01T19:01:31;2.4;;;1.6;;
77802;SDS011;66993;48.256;16.422;2023-04-01T19:06:32;2.1;;;1.4;;
77802;SDS011;66993;48.256;16.422;2023-04-01T19:11:33;1.9;;;1.3;;
77802;SDS011;66993;48.256;16.422;2023-04-01T19:16:38;2.2;;;1.9;;
77802;SDS011;66993;48.256;16.422;2023-04-01T19:21:35;2.1;;;1.8;;
77802;SDS011;66993;48.256;16.422;2023-04-01T19:26:37;1.9;;;1.6;;
77802;SDS011;66993;48.256;16.422;2023-04-01T19:31:41;2.1;;;1.7;;
77802;SDS011;66993;48.256;16.422;2023-04-01T19:36:39;1.8;;;1.4;;
77802;SDS011;66993;48.256;16.422;2023-04-01T19:41:40;2.0;;;1.8;;
77802;SDS011;66993;48.256;16.422;2023-04-01T19:46:42;1.9;;;1.6;;
77802;SDS011;66993;48.256;16.422;2023-04-01T19:51:43;2.0;;;1.4;;
77802;SDS011;66993;48.256;16.422;2023-04-01T19:56:44;1.9;;;1.4;;
77802;SDS011;66993;48.256;16.422;2023-04-01T20:01:45;2.0;;;1.7;;
77802;SDS011;66993;48.256;16.422;2023-04-01T20:06:47;2.3;;;1.6;;
77802;SDS011;66993;48.256;16.422;2023-04-01T20:11:50;2.5;;;1.5;;
77802;SDS011;66993;48.256;16.422;2023-04-01T20:16:50;1.5;;;1.3;;
77802;SDS011;66993;48.256;16.422;2023-04-01T20:21:49;1.3;;;1.2;;
77802;SDS011;66993;48.256;16.422;2023-04-01T20:26:51;2.0;;;1.3;;
77802;SDS011;66993;48.256;16.422;2023-04-01T20:31:54;1.6;;;1.5;;
77802;SDS011;66993;48.256;16.422;2023-04-01T20:37:00;1.7;;;1.6;;
77802;SDS011;66993;48.256;16.422;2023-04-01T20:41:58;1.8;;;1.5;;
77802;SDS011;66993;48.256;16.422;2023-04-01T20:46:56;1.7;;;1.1;;
77802;SDS011;66993;48.256;16.422;2023-04-01T20:51:59;1.6;;;1.3;;
77802;SDS011;66993;48.256;16.422;2023-04-01T20:57:00;1.8;;;1.4;;
77802;SDS011;66993;48.256;16.422;2023-04-01T21:02:01;1.6;;;1.5;;
77802;SDS011;66993;48.256;16.422;2023-04-01T21:07:03;2.1;;;1.3;;
77802;SDS011;66993;48.256;16.422;2023-04-01T21:12:05;1.8;;;1.3;;
77802;SDS011;66993;48.256;16.422;2023-04-01T21:17:05;1.7;;;1.4;;
77802;SDS011;66993;48.256;16.422;2023-04-01T21:22:07;1.9;;;1.5;;
77802;SDS011;66993;48.256;16.422;2023-04-01T21:27:07;2.0;;;1.7;;
77802;SDS011;66993;48.256;16.422;2023-04-01T21:32:12;1.8;;;1.6;;
77802;SDS011;66993;48.256;16.422;2023-04-01T21:37:13;3.9;;;1.2;;
77802;SDS011;66993;48.256;16.422;2023-04-01T21:42:13;2.0;;;1.4;;
77802;SDS011;66993;48.256;16.422;2023-04-01T21:47:23;1.7;;;1.6;;
77802;SDS011;66993;48.256;16.422;2023-04-01T22:07:16;3.2;;;1.5;;
77802;SDS011;66993;48.256;16.422;2023-04-01T22:12:17;2.5;;;1.7;;
77802;SDS011;66993;48.256;16.422;2023-04-01T22:17:19;2.0;;;1.4;;
77802;SDS011;66993;48.256;16.422;2023-04-01T22:22:20;1.5;;;1.4;;
77802;SDS011;66993;48.256;16.422;2023-04-01T22:27:21;1.9;;;1.6;;
77802;SDS011;66993;48.256;16.422;2023-04-01T22:32:23;1.6;;;1.4;;
77802;SDS011;66993;48.256;16.422;2023-04-01T22:37:23;2.4;;;1.6;;
77802;SDS011;66993;48.256;16.422;2023-04-01T22:42:27;2.1;;;1.5;;
77802;SDS011;66993;48.256;16.422;2023-04-01T22:47:27;1.6;;;1.5;;
77802;SDS011;66993;48.256;16.422;2023-04-01T22:52:28;2.4;;;1.5;;
77802;SDS011;66993;48.256;16.422;2023-04-01T22:57:36;1.4;;;1.2;;
77802;SDS011;66993;48.256;16.422;2023-04-01T23:02:30;2.1;;;1.9;;
77802;SDS011;66993;48.256;16.422;2023-04-01T23:07:34;2.5;;;1.6;;
77802;SDS011;66993;48.256;16.422;2023-04-01T23:12:31;2.0;;;1.6;;
77802;SDS011;66993;48.256;16.422;2023-04-01T23:17:36;1.6;;;1.4;;
77802;SDS011;66993;48.256;16.422;2023-04-01T23:22:34;1.5;;;1.2;;
77802;SDS011;66993;48.256;16.422;2023-04-01T23:27:36;1.9;;;1.4;;
77802;SDS011;66993;48.256;16.422;2023-04-01T23:32:36;1.6;;;1.4;;
77802;SDS011;66993;48.256;16.422;2023-04-01T23:37:38;2.4;;;1.5;;
77802;SDS011;66993;48.256;16.422;2023-04-01T23:42:39;1.8;;;1.4;;
77802;SDS011;66993;48.256;16.422;2023-04-01T23:47:40;1.6;;;1.4;;
77802;SDS011;66993;48.256;16.422;2023-04-01T23:52:42;1.7;;;1.5;;
